createdAt,value
2023-02-09T00:02:01.198Z,1022.71
2023-02-09T00:07:01.133Z,1022.47
2023-02-09T00:12:01.098Z,1022.52
2023-02-09T00:17:01.287Z,1022.46
2023-02-09T00:22:04.278Z,1022.44
2023-02-09T00:27:00.832Z,1022.50
2023-02-09T00:32:00.828Z,1022.48
2023-02-09T00:37:00.686Z,1022.35
2023-02-09T00:42:00.651Z,1022.36
2023-02-09T00:47:00.591Z,1022.27
2023-02-09T00:52:00.555Z,1022.24
2023-02-09T00:57:00.517Z,1022.32
2023-02-09T01:02:00.348Z,1022.27
2023-02-09T01:07:00.303Z,1022.22
2023-02-09T01:12:00.248Z,1022.10
2023-02-09T01:17:00.261Z,1022.11
2023-02-09T01:22:00.148Z,1022.13
2023-02-09T01:27:00.076Z,1022.13
2023-02-09T01:32:00.195Z,1022.10
2023-02-09T01:36:59.915Z,1022.05
2023-02-09T01:41:59.876Z,1022.11
2023-02-09T01:46:59.786Z,1022.03
2023-02-09T01:51:59.697Z,1021.92
2023-02-09T01:56:59.677Z,1021.98
2023-02-09T02:01:59.586Z,1021.91
2023-02-09T02:06:59.593Z,1021.84
2023-02-09T02:11:59.487Z,1021.89
2023-02-09T02:16:59.448Z,1021.83
2023-02-09T02:21:59.440Z,1021.87
2023-02-09T02:26:59.307Z,1021.79
2023-02-09T02:31:59.212Z,1021.87
2023-02-09T02:36:59.196Z,1021.94
2023-02-09T02:41:59.107Z,1021.77
2023-02-09T02:46:59.035Z,1021.78
2023-02-09T02:51:58.949Z,1021.74
2023-02-09T02:56:58.990Z,1021.70
2023-02-09T03:01:58.839Z,1021.68
2023-02-09T03:06:58.751Z,1021.73
2023-02-09T03:11:58.708Z,1021.69
2023-02-09T03:16:58.697Z,1021.75
2023-02-09T03:21:58.570Z,1021.71
2023-02-09T03:26:58.516Z,1021.71
2023-02-09T03:31:58.507Z,1021.70
2023-02-09T03:36:58.430Z,1021.59
2023-02-09T03:41:58.401Z,1021.58
2023-02-09T03:46:58.260Z,1021.56
2023-02-09T03:51:58.206Z,1021.59
2023-02-09T03:56:58.124Z,1021.58
2023-02-09T04:01:58.140Z,1021.55
2023-02-09T04:06:58.009Z,1021.51
2023-02-09T04:11:57.926Z,1021.34
2023-02-09T04:16:57.849Z,1021.45
2023-02-09T04:21:57.803Z,1021.46
2023-02-09T04:26:57.768Z,1021.42
2023-02-09T04:31:57.760Z,1021.34
2023-02-09T04:36:57.621Z,1021.31
2023-02-09T04:41:57.560Z,1021.25
2023-02-09T04:46:57.553Z,1021.22
2023-02-09T04:51:57.416Z,1021.34
2023-02-09T04:56:57.413Z,1021.34
2023-02-09T05:01:57.372Z,1021.38
2023-02-09T05:06:57.218Z,1021.30
2023-02-09T05:11:57.172Z,1021.14
2023-02-09T05:16:57.191Z,1021.15
2023-02-09T05:21:57.074Z,1021.24
2023-02-09T05:26:56.961Z,1021.12
2023-02-09T05:31:57.797Z,1021.16
2023-02-09T05:36:56.873Z,1021.06
2023-02-09T05:41:56.842Z,1021.15
2023-02-09T05:46:56.713Z,1021.21
2023-02-09T05:51:56.647Z,1021.17
2023-02-09T05:56:56.612Z,1021.10
2023-02-09T06:01:56.555Z,1021.10
2023-02-09T06:06:56.469Z,1021.08
2023-02-09T06:11:56.429Z,1021.11
2023-02-09T06:16:56.339Z,1021.13
2023-02-09T06:21:56.298Z,1021.20
2023-02-09T06:26:56.263Z,1021.22
2023-02-09T06:31:56.316Z,1021.30
2023-02-09T06:36:56.458Z,1021.31
2023-02-09T06:41:56.065Z,1021.34
2023-02-09T06:46:55.946Z,1021.43
2023-02-09T06:51:55.966Z,1021.40
2023-02-09T06:56:55.817Z,1021.39
2023-02-09T07:01:55.808Z,1021.30
2023-02-09T07:06:55.744Z,1021.26
2023-02-09T07:11:56.485Z,1021.15
2023-02-09T07:16:55.554Z,1021.22
2023-02-09T07:21:55.482Z,1021.26
2023-02-09T07:26:55.494Z,1021.20
2023-02-09T07:31:55.749Z,1021.23
2023-02-09T07:36:55.341Z,1021.31
2023-02-09T07:41:55.268Z,1021.25
2023-02-09T07:46:55.234Z,1021.22
2023-02-09T07:51:55.159Z,1021.23
2023-02-09T07:56:55.030Z,1021.24
2023-02-09T08:01:55.010Z,1021.26
2023-02-09T08:06:54.883Z,1021.21
2023-02-09T08:11:54.843Z,1021.31
2023-02-09T08:16:54.823Z,1021.36
2023-02-09T08:21:54.722Z,1021.31
2023-02-09T08:26:54.735Z,1021.40
2023-02-09T08:31:54.665Z,1021.36
2023-02-09T08:36:54.544Z,1021.28
2023-02-09T08:41:54.436Z,1021.21
2023-02-09T08:46:54.634Z,1021.15
2023-02-09T08:51:54.326Z,1021.24
2023-02-09T08:56:54.236Z,1021.35
2023-02-09T09:01:54.166Z,1021.31
2023-02-09T09:06:54.113Z,1021.23
2023-02-09T09:11:54.038Z,1021.29
2023-02-09T09:16:54.005Z,1021.28
2023-02-09T09:21:53.931Z,1021.31
2023-02-09T09:26:53.937Z,1021.41
2023-02-09T09:31:53.840Z,1021.32
2023-02-09T09:36:53.731Z,1021.23
2023-02-09T09:41:53.678Z,1021.43
2023-02-09T09:46:53.626Z,1021.29
2023-02-09T09:51:53.546Z,1021.19
2023-02-09T09:56:53.466Z,1021.35
2023-02-09T10:01:53.482Z,1021.36
2023-02-09T10:06:53.331Z,1021.34
2023-02-09T10:11:53.261Z,1021.38
2023-02-09T10:16:53.272Z,1021.30
2023-02-09T10:21:53.171Z,1021.30
2023-02-09T10:26:53.072Z,1021.15
2023-02-09T10:31:53.392Z,1021.15
2023-02-09T10:36:52.960Z,1020.95
2023-02-09T10:41:52.845Z,1020.86
2023-02-09T10:46:52.794Z,1020.83
2023-02-09T10:51:52.756Z,1020.72
2023-02-09T10:56:52.695Z,1020.61
2023-02-09T11:01:52.654Z,1020.57
2023-02-09T11:06:52.578Z,1020.57
2023-02-09T11:11:52.474Z,1020.48
2023-02-09T11:16:52.431Z,1020.46
2023-02-09T11:21:52.343Z,1020.35
2023-02-09T11:26:52.267Z,1020.23
2023-02-09T11:31:52.302Z,1020.18
2023-02-09T11:36:52.138Z,1020.16
2023-02-09T11:41:52.069Z,1020.10
2023-02-09T11:46:52.384Z,1019.97
2023-02-09T11:51:51.926Z,1019.91
2023-02-09T11:56:51.953Z,1019.84
2023-02-09T12:01:51.819Z,1019.72
2023-02-09T12:06:51.797Z,1019.56
2023-02-09T12:11:51.673Z,1019.51
2023-02-09T12:16:51.595Z,1019.43
2023-02-09T12:21:51.525Z,1019.36
2023-02-09T12:26:51.498Z,1019.40
2023-02-09T12:31:51.465Z,1019.24
2023-02-09T12:36:51.330Z,1019.16
2023-02-09T12:41:51.267Z,1019.01
2023-02-09T12:46:51.246Z,1018.83
2023-02-09T12:51:51.237Z,1018.70
2023-02-09T12:56:51.078Z,1018.61
2023-02-09T13:01:51.167Z,1018.60
2023-02-09T13:06:51.094Z,1018.69
2023-02-09T13:11:50.859Z,1018.78
2023-02-09T13:16:50.973Z,1018.68
2023-02-09T13:21:50.737Z,1018.68
2023-02-09T13:26:50.669Z,1018.72
2023-02-09T13:31:50.591Z,1018.50
2023-02-09T13:36:50.548Z,1018.28
2023-02-09T13:41:50.478Z,1018.29
2023-02-09T13:46:50.377Z,1018.40
2023-02-09T13:51:50.358Z,1018.49
2023-02-09T13:56:50.246Z,1018.44
2023-02-09T14:01:50.168Z,1018.46
2023-02-09T14:06:50.196Z,1018.63
2023-02-09T14:11:50.068Z,1018.68
2023-02-09T14:16:53.733Z,1018.59
2023-02-09T14:21:49.935Z,1018.57
2023-02-09T14:26:49.846Z,1018.63
2023-02-09T14:31:49.790Z,1018.74
2023-02-09T14:36:49.756Z,1018.86
2023-02-09T14:41:49.674Z,1018.78
2023-02-09T14:46:49.609Z,1018.76
2023-02-09T14:51:49.546Z,1018.76
2023-02-09T14:56:49.457Z,1018.71
2023-02-09T15:01:49.478Z,1018.67
2023-02-09T15:06:49.371Z,1018.53
2023-02-09T15:11:49.325Z,1018.63
2023-02-09T15:16:49.209Z,1018.55
2023-02-09T15:22:02.041Z,1018.61
2023-02-09T15:26:50.080Z,1018.62
2023-02-09T15:31:49.024Z,1018.57
2023-02-09T15:36:48.973Z,1018.75
2023-02-09T15:41:48.911Z,1018.65
2023-02-09T15:46:48.980Z,1018.62
2023-02-09T15:51:48.760Z,1018.78
2023-02-09T15:56:48.711Z,1018.83
2023-02-09T16:01:48.713Z,1018.91
2023-02-09T16:06:48.577Z,1018.89
2023-02-09T16:11:48.682Z,1018.98
2023-02-09T16:16:48.550Z,1018.91
2023-02-09T16:21:48.361Z,1018.94
2023-02-09T16:26:48.293Z,1019.05
2023-02-09T16:31:49.040Z,1019.07
2023-02-09T16:36:48.714Z,1019.14
2023-02-09T16:41:48.128Z,1018.99
2023-02-09T16:46:48.081Z,1018.99
2023-02-09T16:51:47.956Z,1019.13
2023-02-09T16:56:54.117Z,1019.19
2023-02-09T17:01:49.145Z,1019.36
2023-02-09T17:06:47.760Z,1019.35
2023-02-09T17:11:47.790Z,1019.31
2023-02-09T17:16:47.718Z,1019.40
2023-02-09T17:21:47.620Z,1019.65
2023-02-09T17:26:47.556Z,1019.66
2023-02-09T17:31:53.499Z,1019.58
2023-02-09T17:36:48.448Z,1019.68
2023-02-09T17:41:47.316Z,1019.66
2023-02-09T17:46:47.342Z,1019.78
2023-02-09T17:51:47.202Z,1019.78
2023-02-09T17:56:48.262Z,1019.86
2023-02-09T18:01:47.150Z,1019.83
2023-02-09T18:06:47.053Z,1019.96
2023-02-09T18:11:46.912Z,1019.85
2023-02-09T18:16:47.317Z,1019.73
2023-02-09T18:21:46.844Z,1019.79
2023-02-09T18:26:46.713Z,1019.81
2023-02-09T18:31:46.877Z,1019.76
2023-02-09T18:36:46.595Z,1019.74
2023-02-09T18:41:46.626Z,1019.71
2023-02-09T18:46:46.499Z,1019.81
2023-02-09T18:51:46.412Z,1019.71
2023-02-09T18:56:46.400Z,1019.81
2023-02-09T19:01:46.522Z,1019.74
2023-02-09T19:06:46.202Z,1019.69
2023-02-09T19:11:46.344Z,1019.78
2023-02-09T19:16:46.164Z,1019.70
2023-02-09T19:21:46.109Z,1019.60
2023-02-09T19:26:46.041Z,1019.70
2023-02-09T19:31:45.938Z,1019.84
2023-02-09T19:36:45.923Z,1019.83
2023-02-09T19:41:45.803Z,1019.85
2023-02-09T19:46:45.829Z,1019.89
2023-02-09T19:51:45.784Z,1019.81
2023-02-09T19:56:45.749Z,1019.84
2023-02-09T20:01:45.701Z,1019.72
2023-02-09T20:06:45.633Z,1019.85
2023-02-09T20:11:45.399Z,1019.91
2023-02-09T20:16:45.411Z,1019.94
2023-02-09T20:21:45.380Z,1019.98
2023-02-09T20:26:45.223Z,1019.72
2023-02-09T20:31:45.320Z,1019.81
2023-02-09T20:36:45.171Z,1019.82
2023-02-09T20:41:45.299Z,1019.88
2023-02-09T20:46:44.961Z,1019.74
2023-02-09T20:51:45.058Z,1019.80
2023-02-09T20:56:44.840Z,1019.76
2023-02-09T21:01:44.906Z,1019.62
2023-02-09T21:06:44.684Z,1019.62
2023-02-09T21:11:44.623Z,1019.55
2023-02-09T21:16:44.705Z,1019.69
2023-02-09T21:21:44.495Z,1019.71
2023-02-09T21:26:44.466Z,1019.69
2023-02-09T21:31:44.420Z,1019.88
2023-02-09T21:36:44.405Z,1020.01
2023-02-09T21:41:45.163Z,1019.97
2023-02-09T21:46:44.164Z,1020.03
2023-02-09T21:51:44.154Z,1020.19
2023-02-09T21:56:44.047Z,1020.19
2023-02-09T22:01:43.982Z,1020.17
2023-02-09T22:06:43.952Z,1020.21
2023-02-09T22:11:43.934Z,1020.35
2023-02-09T22:16:43.781Z,1020.26
2023-02-09T22:21:43.766Z,1020.38
2023-02-09T22:26:43.673Z,1020.46
2023-02-09T22:31:43.705Z,1020.47
2023-02-09T22:36:43.533Z,1020.39
2023-02-09T22:41:43.450Z,1020.35
2023-02-09T22:46:43.404Z,1020.32
2023-02-09T22:51:43.621Z,1020.35
2023-02-09T22:56:43.325Z,1020.44
2023-02-09T23:01:43.293Z,1020.41
2023-02-09T23:06:43.152Z,1020.45
2023-02-09T23:11:43.092Z,1020.26
2023-02-09T23:16:43.034Z,1020.45
2023-02-09T23:21:42.981Z,1020.44
2023-02-09T23:26:42.934Z,1020.44
2023-02-09T23:31:42.882Z,1020.35
2023-02-09T23:36:42.778Z,1020.35
2023-02-09T23:41:42.690Z,1020.39
2023-02-09T23:46:42.717Z,1020.47
2023-02-09T23:51:42.611Z,1020.58
2023-02-09T23:56:43.188Z,1020.64
